Time;durP1;ratioP1;P1;durP2;ratioP2;P2;SDS_P1;SDS_P2;PMS_P1;PMS_P2;Temp;Humidity;BMP_temperature;BMP_pressure;BME280_temperature;BME280_humidity;BME280_pressure;Samples;Min_cycle;Max_cycle;Signal;HPM_P1;HPM_P2
2020/12/17 00:00:21;;;;;;;159.45;65.53;;;2.30;99.90;;;;;;5073587;28;20028;-84
2020/12/17 00:02:47;;;;;;;165.23;66.22;;;2.40;99.90;;;;;;5073806;28;20029;-83
2020/12/17 00:05:13;;;;;;;173.35;64.93;;;2.40;99.90;;;;;;5073395;28;20170;-83
2020/12/17 00:07:40;;;;;;;160.95;65.45;;;2.30;99.90;;;;;;5073244;28;20533;-84
2020/12/17 00:10:07;;;;;;;177.68;66.78;;;2.30;99.90;;;;;;5072857;28;20508;-84
2020/12/17 00:12:43;;;;;;;175.18;70.82;;;2.40;99.90;;;;;;5073017;28;20040;-84
2020/12/17 00:15:18;;;;;;;176.07;75.18;;;2.30;99.90;;;;;;5073313;28;20123;-84
2020/12/17 00:17:52;;;;;;;179.38;70.93;;;2.30;99.90;;;;;;5074340;28;20103;-84
2020/12/17 00:20:20;;;;;;;166.57;69.03;;;2.40;99.90;;;;;;5073709;28;20029;-84
2020/12/17 00:22:46;;;;;;;176.60;72.07;;;2.40;99.90;;;;;;5054987;28;20066;-84
2020/12/17 00:25:15;;;;;;;176.60;71.00;;;2.40;99.90;;;;;;5073120;28;20057;-83
2020/12/17 00:27:42;;;;;;;177.43;72.90;;;2.40;99.90;;;;;;5072626;28;20029;-84
2020/12/17 00:30:13;;;;;;;186.45;73.70;;;2.40;99.90;;;;;;5055386;28;20020;-83
2020/12/17 00:32:40;;;;;;;176.18;72.68;;;2.40;99.90;;;;;;5055081;28;20016;-83
2020/12/17 00:35:07;;;;;;;165.57;67.75;;;2.40;99.90;;;;;;5072514;28;20013;-82
2020/12/17 00:37:34;;;;;;;174.00;69.43;;;2.40;99.90;;;;;;5072602;28;20028;-83
2020/12/17 00:40:01;;;;;;;177.48;70.30;;;2.40;99.90;;;;;;5054834;28;20037;-84
2020/12/17 00:42:26;;;;;;;170.07;68.78;;;2.40;99.90;;;;;;5054700;28;20035;-83
2020/12/17 00:44:52;;;;;;;179.50;73.28;;;2.40;99.90;;;;;;5072611;28;20020;-84
2020/12/17 00:47:18;;;;;;;166.57;65.38;;;2.40;99.90;;;;;;5072829;28;20092;-84
2020/12/17 00:49:44;;;;;;;159.93;67.65;;;2.50;99.90;;;;;;5072355;28;20032;-84
2020/12/17 00:52:10;;;;;;;166.80;65.07;;;2.50;99.90;;;;;;5072955;28;20031;-83
2020/12/17 00:54:40;;;;;;;155.98;60.95;;;2.50;99.90;;;;;;5088126;28;20028;-83
2020/12/17 00:57:07;;;;;;;158.70;58.45;;;2.50;99.90;;;;;;5072401;28;20043;-84
2020/12/17 00:59:32;;;;;;;150.20;58.90;;;2.50;99.90;;;;;;5072451;28;20036;-84
2020/12/17 01:01:58;;;;;;;144.63;59.00;;;2.50;99.90;;;;;;5072687;28;20021;-84
2020/12/17 01:04:24;;;;;;;157.23;59.72;;;2.50;99.90;;;;;;5072328;28;20032;-84
2020/12/17 01:06:50;;;;;;;153.18;58.35;;;2.50;99.90;;;;;;5072609;28;20024;-85
2020/12/17 01:09:15;;;;;;;148.02;60.55;;;2.40;99.90;;;;;;5054738;28;20021;-85
2020/12/17 01:11:41;;;;;;;156.38;58.75;;;2.50;99.90;;;;;;5054363;28;20432;-84
2020/12/17 01:14:07;;;;;;;134.75;56.47;;;2.50;99.90;;;;;;5072405;28;20029;-83
2020/12/17 01:16:32;;;;;;;136.68;58.28;;;2.40;99.90;;;;;;5072436;28;20104;-84
2020/12/17 01:18:58;;;;;;;141.00;55.08;;;2.40;99.90;;;;;;5071535;28;20036;-84
2020/12/17 01:21:24;;;;;;;148.15;60.72;;;2.40;99.90;;;;;;5072206;28;20024;-84
2020/12/17 01:23:50;;;;;;;152.43;58.65;;;2.40;99.90;;;;;;5054727;28;20021;-84
2020/12/17 01:26:15;;;;;;;141.23;59.92;;;2.50;99.90;;;;;;5054275;28;20429;-84
2020/12/17 01:28:41;;;;;;;141.15;55.65;;;2.50;99.90;;;;;;5072241;28;20075;-84
2020/12/17 01:31:08;;;;;;;154.00;58.08;;;2.50;99.90;;;;;;5072313;28;20024;-84
2020/12/17 01:33:33;;;;;;;145.43;55.10;;;2.50;99.90;;;;;;5072070;28;20028;-84
2020/12/17 01:36:04;;;;;;;136.43;58.03;;;2.50;99.90;;;;;;5053317;28;20170;-84
2020/12/17 01:38:30;;;;;;;146.63;55.17;;;2.50;99.90;;;;;;5072077;28;20025;-84
2020/12/17 01:40:56;;;;;;;143.10;57.67;;;2.50;99.90;;;;;;5072061;28;20048;-84
2020/12/17 01:43:22;;;;;;;154.77;59.25;;;2.50;99.90;;;;;;5071840;28;20068;-84
2020/12/17 01:45:48;;;;;;;142.00;56.70;;;2.50;99.90;;;;;;5071699;28;20016;-84
2020/12/17 01:48:16;;;;;;;144.35;58.10;;;2.50;99.90;;;;;;5074729;28;20028;-83
2020/12/17 01:50:44;;;;;;;149.68;58.65;;;2.50;99.90;;;;;;5076133;28;20024;-84
2020/12/17 01:53:10;;;;;;;135.25;56.53;;;2.50;99.90;;;;;;5058144;28;20024;-83
2020/12/17 01:55:35;;;;;;;149.60;58.42;;;2.50;99.90;;;;;;5057754;28;20025;-83
2020/12/17 01:58:04;;;;;;;146.35;58.67;;;2.50;99.90;;;;;;5075720;28;20028;-83
2020/12/17 02:00:34;;;;;;;144.93;57.83;;;2.40;99.90;;;;;;5075157;28;20052;-84
2020/12/17 02:03:00;;;;;;;154.30;57.40;;;2.40;99.90;;;;;;5058099;28;20021;-83
2020/12/17 02:05:26;;;;;;;154.55;62.10;;;2.50;99.90;;;;;;5075403;28;20339;-84
2020/12/17 02:07:52;;;;;;;148.55;60.45;;;2.50;99.90;;;;;;5075530;28;20474;-84
2020/12/17 02:10:18;;;;;;;153.68;61.25;;;2.50;99.90;;;;;;5057553;28;20021;-84
2020/12/17 02:12:49;;;;;;;167.00;61.17;;;2.50;99.90;;;;;;5057818;28;20078;-83
2020/12/17 02:15:18;;;;;;;156.70;61.80;;;2.50;99.90;;;;;;5075502;28;20032;-84
2020/12/17 02:17:43;;;;;;;165.43;64.40;;;2.50;99.90;;;;;;5075277;28;20032;-84
2020/12/17 02:20:10;;;;;;;155.00;60.95;;;2.50;99.90;;;;;;5091034;28;20029;-84
2020/12/17 02:22:37;;;;;;;150.40;55.78;;;2.50;99.90;;;;;;5075401;28;20029;-84
2020/12/17 02:25:12;;;;;;;151.50;57.63;;;2.40;99.90;;;;;;5075376;28;20024;-84
2020/12/17 02:27:39;;;;;;;153.52;56.17;;;2.40;99.90;;;;;;5090871;28;20058;-84
2020/12/17 02:30:09;;;;;;;170.95;63.03;;;2.30;99.90;;;;;;5075128;28;20032;-84
2020/12/17 02:32:36;;;;;;;160.23;57.38;;;2.30;99.90;;;;;;5075568;28;20024;-83
2020/12/17 02:35:03;;;;;;;168.27;58.28;;;2.30;99.90;;;;;;5075284;28;20043;-84
2020/12/17 02:37:29;;;;;;;145.52;57.72;;;2.30;99.90;;;;;;5057178;28;20493;-84
2020/12/17 02:39:55;;;;;;;146.85;55.63;;;2.30;99.90;;;;;;5075420;28;20064;-84
2020/12/17 02:42:21;;;;;;;155.93;59.05;;;2.20;99.90;;;;;;5075103;28;20109;-84
2020/12/17 02:44:46;;;;;;;145.50;53.25;;;2.20;99.90;;;;;;5075277;28;20025;-84
2020/12/17 02:47:12;;;;;;;152.98;56.92;;;2.30;99.90;;;;;;5074921;28;20024;-84
2020/12/17 02:49:38;;;;;;;171.93;54.38;;;2.20;99.90;;;;;;5075388;28;20103;-84
2020/12/17 02:52:04;;;;;;;180.57;60.25;;;2.30;99.90;;;;;;5074825;28;20104;-84
2020/12/17 02:54:30;;;;;;;154.43;58.17;;;2.30;99.90;;;;;;5056603;28;20021;-84
2020/12/17 02:56:56;;;;;;;177.95;60.53;;;2.30;99.90;;;;;;5074853;28;20074;-85
2020/12/17 02:59:21;;;;;;;171.68;62.47;;;2.30;99.90;;;;;;5074346;28;20044;-84
2020/12/17 03:01:47;;;;;;;161.95;61.95;;;2.30;99.90;;;;;;5057089;28;20060;-84
2020/12/17 03:04:13;;;;;;;167.40;59.20;;;2.40;99.90;;;;;;5056629;28;20051;-84
2020/12/17 03:06:39;;;;;;;178.82;59.50;;;2.40;99.90;;;;;;5056406;28;20024;-83
2020/12/17 03:09:05;;;;;;;164.23;57.72;;;2.40;99.90;;;;;;5074513;28;20537;-83
2020/12/17 03:11:34;;;;;;;167.55;60.30;;;2.40;99.90;;;;;;5056479;28;20020;-84
2020/12/17 03:14:00;;;;;;;187.65;60.50;;;2.40;99.90;;;;;;5074496;28;20032;-84
2020/12/17 03:16:25;;;;;;;192.10;65.18;;;2.40;99.90;;;;;;5074766;28;20424;-84
2020/12/17 03:18:51;;;;;;;193.30;67.85;;;2.40;99.90;;;;;;5074344;28;20167;-84
2020/12/17 03:21:17;;;;;;;174.70;61.90;;;2.40;99.90;;;;;;5073947;28;20024;-84
2020/12/17 03:23:43;;;;;;;199.55;65.20;;;2.40;99.90;;;;;;5074179;28;20017;-84
2020/12/17 03:26:08;;;;;;;158.55;56.17;;;2.40;99.90;;;;;;5089658;28;20041;-85
2020/12/17 03:28:34;;;;;;;173.80;60.90;;;2.40;99.90;;;;;;5074952;28;20306;-84
2020/12/17 03:31:00;;;;;;;200.27;63.72;;;2.40;99.90;;;;;;5074110;28;20596;-85
2020/12/17 03:33:26;;;;;;;162.02;58.78;;;2.40;99.90;;;;;;5089637;28;20104;-84
2020/12/17 03:35:52;;;;;;;174.13;57.38;;;2.40;99.90;;;;;;5073830;28;20478;-85
2020/12/17 03:38:17;;;;;;;173.52;59.33;;;2.40;99.90;;;;;;5073992;28;20024;-84
2020/12/17 03:40:44;;;;;;;181.23;62.28;;;2.40;99.90;;;;;;5074514;28;20037;-84
2020/12/17 03:43:09;;;;;;;188.05;58.78;;;2.40;99.90;;;;;;5073657;28;20036;-84
2020/12/17 03:45:35;;;;;;;162.52;56.60;;;2.40;99.90;;;;;;5055755;28;20025;-85
2020/12/17 03:48:01;;;;;;;178.68;64.93;;;2.40;99.90;;;;;;5075182;28;20389;-84
2020/12/17 03:50:27;;;;;;;198.02;63.28;;;2.40;99.90;;;;;;5050835;28;20035;-83
2020/12/17 03:52:52;;;;;;;197.88;69.80;;;2.40;99.90;;;;;;5085634;28;20031;-82
2020/12/17 03:55:19;;;;;;;182.48;61.25;;;2.40;99.90;;;;;;5073986;28;20031;-83
2020/12/17 03:57:44;;;;;;;184.30;57.85;;;2.30;99.90;;;;;;5055972;28;20032;-84
2020/12/17 04:00:10;;;;;;;182.68;64.07;;;2.30;99.90;;;;;;5070826;28;20078;-84
2020/12/17 04:02:36;;;;;;;182.75;60.38;;;2.30;99.90;;;;;;5053904;28;20455;-84
2020/12/17 04:05:02;;;;;;;184.80;59.78;;;2.30;99.90;;;;;;5053476;28;20073;-84
2020/12/17 04:07:28;;;;;;;188.20;63.35;;;2.30;99.90;;;;;;5087092;28;20028;-84
2020/12/17 04:09:53;;;;;;;197.63;62.80;;;2.20;99.90;;;;;;5085210;28;20635;-84
2020/12/17 04:12:20;;;;;;;183.38;58.92;;;2.20;99.90;;;;;;5070894;28;20029;-83
2020/12/17 04:14:45;;;;;;;206.48;60.20;;;2.20;99.90;;;;;;5072599;28;20466;-83
2020/12/17 04:17:11;;;;;;;215.60;65.07;;;2.20;99.90;;;;;;5072989;28;20032;-83
2020/12/17 04:19:37;;;;;;;183.05;59.67;;;2.20;99.90;;;;;;5073334;28;20039;-84
2020/12/17 04:22:02;;;;;;;226.63;66.70;;;2.30;99.90;;;;;;5073133;28;20460;-83
2020/12/17 04:24:30;;;;;;;187.65;60.53;;;2.30;99.90;;;;;;5073123;28;20020;-84
2020/12/17 04:26:56;;;;;;;226.13;70.80;;;2.30;99.90;;;;;;5072220;28;20454;-83
2020/12/17 04:29:21;;;;;;;216.32;64.82;;;2.30;99.90;;;;;;5071942;28;20567;-83
2020/12/17 04:31:47;;;;;;;207.73;62.67;;;2.30;99.90;;;;;;5072503;28;20033;-83
2020/12/17 04:34:13;;;;;;;210.45;60.80;;;2.20;99.90;;;;;;5072687;28;20066;-83
2020/12/17 04:36:39;;;;;;;238.65;66.72;;;2.20;99.90;;;;;;5055048;28;20446;-83
2020/12/17 04:39:05;;;;;;;229.32;67.45;;;2.20;99.90;;;;;;5072419;28;20094;-84
2020/12/17 04:41:32;;;;;;;197.10;62.95;;;2.20;99.90;;;;;;5072667;28;20025;-84
2020/12/17 04:43:59;;;;;;;284.90;76.07;;;2.20;99.90;;;;;;5072461;28;20398;-83
2020/12/17 04:46:26;;;;;;;215.23;69.32;;;2.20;99.90;;;;;;5072121;28;20100;-83
2020/12/17 04:48:53;;;;;;;218.52;65.57;;;2.20;99.90;;;;;;5072727;28;20127;-84
2020/12/17 04:51:20;;;;;;;226.80;68.68;;;2.20;99.90;;;;;;5054834;28;20069;-83
2020/12/17 04:53:48;;;;;;;242.18;65.40;;;2.20;99.90;;;;;;5072237;28;20116;-83
2020/12/17 04:56:16;;;;;;;222.05;61.58;;;2.10;99.90;;;;;;5072354;28;20056;-84
2020/12/17 04:58:49;;;;;;;238.05;68.10;;;2.10;99.90;;;;;;5072344;28;20429;-83
2020/12/17 05:01:17;;;;;;;203.93;60.83;;;2.10;99.90;;;;;;5072179;28;20074;-84
2020/12/17 05:03:47;;;;;;;202.00;58.67;;;2.10;99.90;;;;;;5072887;28;20021;-84
2020/12/17 05:06:22;;;;;;;232.73;65.18;;;2.10;99.90;;;;;;5072934;28;20023;-84
2020/12/17 05:08:49;;;;;;;196.43;60.53;;;2.10;99.90;;;;;;5054657;28;20036;-83
2020/12/17 05:11:15;;;;;;;278.10;67.68;;;2.10;99.90;;;;;;5072415;28;20020;-84
2020/12/17 05:13:41;;;;;;;247.57;68.22;;;2.10;99.90;;;;;;5072182;28;20047;-82
2020/12/17 05:16:09;;;;;;;187.23;57.90;;;2.10;99.90;;;;;;5072230;28;20021;-84
2020/12/17 05:18:35;;;;;;;244.85;62.60;;;2.10;99.90;;;;;;5071793;28;20071;-84
2020/12/17 05:21:01;;;;;;;237.50;68.93;;;2.10;99.90;;;;;;5055313;28;20020;-83
2020/12/17 05:23:28;;;;;;;211.73;64.18;;;2.10;99.90;;;;;;5047856;28;20094;-83
2020/12/17 05:25:55;;;;;;;225.05;63.05;;;2.20;99.90;;;;;;5060642;28;20020;-84
2020/12/17 05:28:21;;;;;;;224.43;64.35;;;2.20;99.90;;;;;;5078265;28;20032;-84
2020/12/17 05:30:47;;;;;;;240.93;62.47;;;2.20;99.90;;;;;;5078288;28;20097;-83
2020/12/17 05:33:13;;;;;;;178.10;55.13;;;2.20;99.90;;;;;;5078079;28;20467;-82
2020/12/17 05:35:41;;;;;;;182.50;57.38;;;2.20;99.90;;;;;;5078460;28;20056;-84
2020/12/17 05:38:11;;;;;;;190.18;59.65;;;2.20;99.90;;;;;;5078426;28;20046;-84
2020/12/17 05:40:38;;;;;;;177.95;54.47;;;2.30;99.90;;;;;;5078339;28;20127;-83
2020/12/17 05:43:05;;;;;;;175.45;55.03;;;2.20;99.90;;;;;;5079127;28;20017;-84
2020/12/17 05:45:31;;;;;;;144.75;47.30;;;2.30;99.90;;;;;;5061159;28;20036;-83
2020/12/17 05:48:10;;;;;;;154.32;52.38;;;2.20;99.90;;;;;;5078483;28;20035;-84
2020/12/17 05:50:49;;;;;;;141.00;46.17;;;2.20;99.90;;;;;;5061168;28;20048;-84
2020/12/17 05:53:16;;;;;;;130.60;43.72;;;2.20;99.90;;;;;;5078789;28;20091;-84
2020/12/17 05:55:42;;;;;;;117.75;40.45;;;2.20;99.90;;;;;;5078774;28;20029;-84
2020/12/17 05:58:12;;;;;;;131.57;44.50;;;2.20;99.90;;;;;;5060757;28;20462;-84
2020/12/17 06:00:37;;;;;;;137.05;43.22;;;2.20;99.90;;;;;;5078480;28;20040;-83
2020/12/17 06:03:06;;;;;;;113.93;39.90;;;2.20;99.90;;;;;;5078624;28;20379;-84
2020/12/17 06:05:34;;;;;;;121.82;42.47;;;2.20;99.90;;;;;;5060623;28;20374;-84
2020/12/17 06:08:00;;;;;;;124.03;42.90;;;2.20;99.90;;;;;;5078958;28;20021;-85
2020/12/17 06:10:28;;;;;;;120.03;42.05;;;2.20;99.90;;;;;;5056858;28;20021;-84
2020/12/17 06:12:55;;;;;;;121.10;44.13;;;2.10;99.90;;;;;;5057003;28;20078;-85
2020/12/17 06:15:25;;;;;;;116.95;43.08;;;2.10;99.90;;;;;;5059332;28;20047;-83
2020/12/17 06:17:59;;;;;;;104.72;40.25;;;2.10;99.90;;;;;;5058442;28;20025;-84
2020/12/17 06:20:27;;;;;;;126.03;44.70;;;2.10;99.90;;;;;;5060496;28;20032;-84
2020/12/17 06:22:53;;;;;;;116.90;43.78;;;2.10;99.90;;;;;;5060779;28;20021;-84
2020/12/17 06:25:19;;;;;;;114.63;40.30;;;2.10;99.90;;;;;;5080713;28;20024;-85
2020/12/17 06:27:50;;;;;;;125.45;40.70;;;2.10;99.90;;;;;;5078168;28;20359;-84
2020/12/17 06:30:25;;;;;;;95.28;34.40;;;2.10;99.90;;;;;;5060198;28;20021;-84
2020/12/17 06:32:54;;;;;;;107.35;39.50;;;2.10;99.90;;;;;;5076480;28;20073;-83
2020/12/17 06:35:41;;;;;;;92.88;37.28;;;2.10;99.90;;;;;;5075092;28;20021;-84
2020/12/17 06:38:16;;;;;;;102.18;37.10;;;2.10;99.90;;;;;;5056466;28;20029;-85
2020/12/17 06:40:42;;;;;;;108.68;37.15;;;2.10;99.90;;;;;;5074438;28;20045;-84
2020/12/17 06:43:27;;;;;;;101.32;39.42;;;2.10;99.90;;;;;;5056635;28;20051;-83
2020/12/17 06:45:53;;;;;;;105.00;40.15;;;2.10;99.90;;;;;;5074485;28;20025;-84
2020/12/17 06:48:37;;;;;;;85.60;37.10;;;2.20;99.90;;;;;;5075095;28;20028;-83
2020/12/17 06:51:42;;;;;;;104.07;38.83;;;2.20;99.90;;;;;;5057096;28;20052;-84
2020/12/17 06:54:17;;;;;;;97.32;38.53;;;2.20;99.90;;;;;;5040922;28;20039;-84
2020/12/17 06:57:02;;;;;;;101.35;37.38;;;2.10;99.90;;;;;;5072651;28;20028;-83
2020/12/17 06:59:28;;;;;;;84.15;33.60;;;2.10;99.90;;;;;;5055524;28;20028;-83
2020/12/17 07:01:54;;;;;;;105.07;41.47;;;2.10;99.90;;;;;;5056576;28;20066;-83
2020/12/17 07:04:43;;;;;;;104.53;36.97;;;2.10;99.90;;;;;;5056573;28;20024;-84
2020/12/17 07:07:18;;;;;;;104.47;37.13;;;2.10;99.90;;;;;;5073330;28;20163;-83
2020/12/17 07:09:47;;;;;;;104.28;32.60;;;2.00;99.90;;;;;;5078282;28;20020;-83
2020/12/17 07:12:33;;;;;;;105.93;34.83;;;2.00;99.90;;;;;;5071494;28;20044;-83
2020/12/17 07:15:00;;;;;;;108.40;37.38;;;1.90;99.90;;;;;;5056806;28;20037;-83
2020/12/17 07:17:26;;;;;;;113.13;37.22;;;1.80;99.90;;;;;;5072387;28;20025;-82
2020/12/17 07:19:52;;;;;;;114.97;37.45;;;1.80;99.90;;;;;;5056910;28;20032;-82
2020/12/17 07:22:18;;;;;;;118.57;39.90;;;1.80;99.90;;;;;;5074291;28;20047;-82
2020/12/17 07:24:52;;;;;;;121.47;39.05;;;1.80;99.90;;;;;;5055268;28;20074;-83
2020/12/17 07:27:21;;;;;;;123.20;39.03;;;1.80;99.90;;;;;;5073578;28;20125;-82
2020/12/17 07:30:11;;;;;;;121.63;38.30;;;1.80;99.90;;;;;;5073378;28;20033;-82
2020/12/17 07:32:43;;;;;;;138.38;42.88;;;1.80;99.90;;;;;;5070209;28;20017;-83
2020/12/17 07:35:09;;;;;;;128.32;38.25;;;1.80;99.90;;;;;;5072759;28;20158;-83
2020/12/17 07:37:50;;;;;;;110.30;38.53;;;1.80;99.90;;;;;;5072293;28;20099;-82
2020/12/17 07:40:29;;;;;;;82.65;31.10;;;1.80;99.90;;;;;;5073727;28;20047;-84
2020/12/17 07:43:01;;;;;;;118.75;45.25;;;1.70;99.90;;;;;;5073932;28;20055;-84
2020/12/17 07:45:49;;;;;;;92.75;34.72;;;1.80;99.90;;;;;;5072307;28;20029;-84
2020/12/17 07:48:34;;;;;;;81.18;29.73;;;1.80;99.90;;;;;;5073931;28;20044;-81
2020/12/17 07:51:02;;;;;;;81.38;29.90;;;1.80;99.90;;;;;;5073793;28;20056;-83
2020/12/17 07:53:27;;;;;;;89.30;33.72;;;1.80;99.90;;;;;;5073528;28;20068;-83
2020/12/17 07:55:54;;;;;;;83.45;30.50;;;1.80;99.90;;;;;;5055629;28;20043;-84
2020/12/17 07:58:20;;;;;;;82.60;29.35;;;1.80;99.90;;;;;;5073627;28;20435;-84
2020/12/17 08:00:46;;;;;;;96.25;34.85;;;1.80;99.90;;;;;;5072794;28;20128;-84
2020/12/17 08:03:13;;;;;;;79.90;30.88;;;1.70;99.90;;;;;;5073338;28;20071;-83
2020/12/17 08:05:39;;;;;;;69.53;29.67;;;1.70;99.90;;;;;;5055430;28;20025;-82
2020/12/17 08:08:05;;;;;;;67.72;31.10;;;1.80;99.90;;;;;;5072868;28;20102;-84
2020/12/17 08:10:38;;;;;;;66.82;27.90;;;1.80;99.90;;;;;;5073680;28;20021;-83
2020/12/17 08:13:04;;;;;;;;;;;1.80;99.90;;;;;;5074153;28;20017;-84
2020/12/17 08:15:32;;;;;;;58.80;24.95;;;1.80;99.90;;;;;;5073845;28;19919;-84
2020/12/17 08:17:59;;;;;;;68.82;31.42;;;1.80;99.90;;;;;;5055119;28;20013;-84
2020/12/17 08:20:27;;;;;;;61.55;28.20;;;1.80;99.90;;;;;;5071849;28;20029;-84
2020/12/17 08:22:53;;;;;;;58.40;26.00;;;1.80;99.90;;;;;;5054779;28;20021;-84
2020/12/17 08:25:24;;;;;;;54.55;26.15;;;1.80;99.90;;;;;;5073141;28;20020;-84
2020/12/17 08:27:51;;;;;;;62.38;28.02;;;1.80;99.90;;;;;;5073533;28;20012;-83
2020/12/17 08:30:18;;;;;;;54.83;25.33;;;1.80;99.90;;;;;;5075300;28;20020;-83
2020/12/17 08:32:48;;;;;;;63.05;28.00;;;1.80;99.90;;;;;;5074915;28;20024;-84
2020/12/17 08:35:19;;;;;;;64.38;26.67;;;1.80;99.90;;;;;;5072011;28;20086;-83
2020/12/17 08:37:44;;;;;;;61.00;26.27;;;1.80;99.90;;;;;;5072899;28;20024;-84
2020/12/17 08:40:12;;;;;;;67.95;31.90;;;1.80;99.90;;;;;;5072793;28;20429;-85
2020/12/17 08:42:43;;;;;;;83.65;36.65;;;1.90;99.90;;;;;;5055166;28;20024;-84
2020/12/17 08:45:12;;;;;;;85.88;38.85;;;1.90;99.90;;;;;;5072798;28;20108;-84
2020/12/17 08:47:40;;;;;;;74.40;31.02;;;2.00;99.90;;;;;;5054793;28;20025;-84
2020/12/17 08:50:07;;;;;;;52.53;24.75;;;2.00;99.90;;;;;;5068917;28;20063;-84
2020/12/17 08:52:33;;;;;;;63.30;26.13;;;2.10;99.90;;;;;;5074721;28;20028;-84
2020/12/17 08:55:02;;;;;;;70.20;28.05;;;2.10;99.90;;;;;;5073332;28;20017;-84
2020/12/17 08:57:28;;;;;;;59.03;22.95;;;2.00;99.90;;;;;;5054168;28;20021;-84
2020/12/17 08:59:54;;;;;;;58.92;24.60;;;2.00;99.90;;;;;;5072344;28;20037;-83
2020/12/17 09:02:30;;;;;;;50.65;22.30;;;2.00;99.90;;;;;;5054558;28;20082;-84
2020/12/17 09:05:00;;;;;;;55.97;23.70;;;2.10;99.90;;;;;;5073081;28;20024;-84
2020/12/17 09:07:31;;;;;;;61.60;27.77;;;2.20;99.90;;;;;;5088034;28;20474;-83
2020/12/17 09:10:10;;;;;;;69.40;27.77;;;2.20;99.90;;;;;;5072159;28;20038;-84
2020/12/17 09:12:36;;;;;;;55.67;25.02;;;2.30;99.90;;;;;;5071733;28;20569;-83
2020/12/17 09:15:07;;;;;;;67.38;27.50;;;2.40;99.90;;;;;;5072667;28;20119;-84
2020/12/17 09:17:33;;;;;;;76.32;33.53;;;2.40;99.90;;;;;;5054317;28;20021;-84
2020/12/17 09:20:00;;;;;;;89.22;36.50;;;2.40;99.90;;;;;;5072404;28;20040;-84
2020/12/17 09:22:36;;;;;;;65.47;31.45;;;2.50;99.90;;;;;;5072622;28;20051;-83
2020/12/17 09:25:03;;;;;;;58.75;25.55;;;2.50;99.90;;;;;;5054250;28;20117;-84
2020/12/17 09:27:33;;;;;;;57.55;24.52;;;2.60;99.90;;;;;;5072117;28;20478;-84
2020/12/17 09:30:14;;;;;;;64.63;29.33;;;2.50;99.90;;;;;;5072250;28;20036;-84
2020/12/17 09:33:00;;;;;;;74.80;32.53;;;2.60;99.90;;;;;;5072902;28;20021;-84
2020/12/17 09:35:30;;;;;;;155.02;59.58;;;2.60;99.90;;;;;;5072278;28;20029;-84
2020/12/17 09:37:57;;;;;;;592.72;254.40;;;2.60;99.90;;;;;;5053905;28;20056;-84
2020/12/17 09:40:23;;;;;;;96.43;39.35;;;2.50;99.90;;;;;;5071975;28;20032;-84
2020/12/17 09:43:08;;;;;;;92.32;40.33;;;2.40;99.90;;;;;;5071447;28;20497;-84
2020/12/17 09:45:45;;;;;;;63.00;29.23;;;2.40;99.90;;;;;;5070944;28;20038;-84
2020/12/17 09:48:22;;;;;;;74.72;31.50;;;2.50;99.90;;;;;;5072161;28;20023;-84
2020/12/17 09:51:02;;;;;;;64.30;25.65;;;2.50;99.90;;;;;;5054154;28;20028;-85
2020/12/17 09:53:32;;;;;;;57.92;27.75;;;2.60;99.90;;;;;;5054118;28;20052;-85
2020/12/17 09:55:58;;;;;;;63.72;27.60;;;2.70;99.90;;;;;;5054012;28;20382;-85
2020/12/17 09:58:24;;;;;;;60.03;26.73;;;2.60;99.90;;;;;;5071825;28;20462;-85
2020/12/17 10:00:50;;;;;;;48.58;21.63;;;2.60;99.90;;;;;;5072208;28;20031;-85
2020/12/17 10:03:16;;;;;;;54.17;25.92;;;2.70;99.90;;;;;;5071670;28;20067;-85
2020/12/17 10:05:42;;;;;;;61.20;26.42;;;2.70;99.90;;;;;;5054584;28;20067;-85
2020/12/17 10:08:08;;;;;;;54.78;23.83;;;2.70;99.90;;;;;;5072655;28;20060;-85
2020/12/17 10:10:34;;;;;;;52.22;23.75;;;2.70;99.90;;;;;;5075500;28;20062;-84
2020/12/17 10:13:01;;;;;;;50.35;22.27;;;2.70;99.90;;;;;;5075658;28;20024;-84
2020/12/17 10:15:30;;;;;;;54.13;25.38;;;2.80;99.90;;;;;;5076426;28;20025;-85
2020/12/17 10:17:57;;;;;;;42.90;19.75;;;2.90;99.90;;;;;;5057761;28;20107;-85
2020/12/17 10:20:23;;;;;;;57.95;23.27;;;2.90;99.90;;;;;;5057583;28;20426;-85
2020/12/17 10:22:49;;;;;;;64.32;29.25;;;2.80;99.90;;;;;;5057667;28;20409;-85
2020/12/17 10:25:17;;;;;;;57.00;22.85;;;2.80;99.90;;;;;;5075236;28;20013;-85
2020/12/17 10:27:43;;;;;;;45.20;20.17;;;2.80;99.90;;;;;;5057648;28;20048;-85
2020/12/17 10:30:09;;;;;;;45.08;19.75;;;2.80;99.90;;;;;;5057177;28;20101;-85
2020/12/17 10:32:37;;;;;;;43.00;20.35;;;2.80;99.90;;;;;;5075310;28;20052;-85
2020/12/17 10:35:04;;;;;;;42.25;18.05;;;2.80;99.90;;;;;;5075133;28;20024;-85
2020/12/17 10:37:30;;;;;;;43.35;19.70;;;2.80;99.90;;;;;;5075046;28;20021;-85
2020/12/17 10:39:55;;;;;;;39.08;18.88;;;2.70;99.90;;;;;;5057294;28;20043;-85
2020/12/17 10:42:22;;;;;;;35.00;17.90;;;2.70;99.90;;;;;;5056182;28;20029;-85
2020/12/17 10:44:50;;;;;;;44.15;19.85;;;2.70;99.90;;;;;;5057232;28;20021;-85
2020/12/17 10:47:18;;;;;;;39.72;17.65;;;2.80;99.90;;;;;;5056804;28;20078;-84
2020/12/17 10:49:44;;;;;;;44.65;20.60;;;2.70;99.90;;;;;;5075079;28;20093;-85
2020/12/17 10:52:10;;;;;;;41.58;18.23;;;2.70;99.90;;;;;;5075118;28;20461;-85
2020/12/17 10:54:36;;;;;;;44.17;21.05;;;2.80;99.90;;;;;;5074960;28;20059;-85
2020/12/17 10:57:02;;;;;;;44.78;21.52;;;2.70;99.90;;;;;;5074811;28;20573;-85
2020/12/17 10:59:28;;;;;;;43.67;20.45;;;2.80;99.90;;;;;;5074567;28;20064;-85
2020/12/17 11:02:00;;;;;;;43.95;20.50;;;2.80;99.90;;;;;;5074568;28;20055;-85
2020/12/17 11:04:26;;;;;;;94.50;38.70;;;2.80;99.90;;;;;;5090269;28;20115;-85
2020/12/17 11:06:57;;;;;;;64.53;27.65;;;2.80;99.90;;;;;;5074724;28;20107;-85
2020/12/17 11:09:23;;;;;;;48.70;20.85;;;2.80;99.90;;;;;;5074499;28;20024;-85
2020/12/17 11:11:53;;;;;;;43.90;19.40;;;2.80;99.90;;;;;;5074352;28;20020;-85
2020/12/17 11:14:19;;;;;;;63.78;24.33;;;2.80;99.90;;;;;;5074650;28;20032;-85
2020/12/17 11:16:48;;;;;;;52.22;23.40;;;2.90;99.90;;;;;;5074329;28;20539;-84
2020/12/17 11:19:14;;;;;;;39.90;18.85;;;2.90;99.90;;;;;;5055857;28;20032;-85
2020/12/17 11:21:41;;;;;;;56.20;23.83;;;3.00;99.90;;;;;;5074691;28;20028;-83
2020/12/17 11:24:08;;;;;;;53.13;24.17;;;2.90;99.90;;;;;;5039076;28;20037;-85
2020/12/17 11:26:44;;;;;;;49.20;19.88;;;2.90;99.90;;;;;;5074625;28;20025;-85
2020/12/17 11:29:10;;;;;;;42.65;19.52;;;3.00;99.90;;;;;;5074438;28;20128;-85
2020/12/17 11:31:36;;;;;;;41.55;19.35;;;3.00;99.90;;;;;;5056093;28;20025;-85
2020/12/17 11:34:02;;;;;;;41.17;19.00;;;3.00;99.90;;;;;;5073905;28;20021;-85
2020/12/17 11:36:28;;;;;;;39.03;19.60;;;2.90;99.90;;;;;;5056310;28;20161;-84
2020/12/17 11:38:54;;;;;;;41.45;19.40;;;3.00;99.90;;;;;;5074082;28;20066;-85
2020/12/17 11:41:19;;;;;;;38.53;19.73;;;3.00;99.90;;;;;;5073990;28;20435;-85
2020/12/17 11:43:45;;;;;;;37.83;17.58;;;3.00;99.90;;;;;;5056032;28;20029;-85
2020/12/17 11:46:11;;;;;;;35.97;17.25;;;3.00;99.90;;;;;;5056402;28;20012;-85
2020/12/17 11:48:37;;;;;;;39.45;16.95;;;3.00;99.90;;;;;;5073950;28;20095;-85
2020/12/17 11:51:02;;;;;;;34.78;16.02;;;3.10;99.90;;;;;;5074103;28;20029;-85
2020/12/17 11:53:28;;;;;;;35.25;16.30;;;3.10;99.90;;;;;;5073850;28;20024;-85
2020/12/17 11:55:54;;;;;;;39.55;19.08;;;3.10;99.90;;;;;;5055714;28;20025;-85
2020/12/17 11:58:20;;;;;;;35.60;17.73;;;3.20;99.90;;;;;;5073897;28;20031;-85
2020/12/17 12:00:46;;;;;;;56.78;24.10;;;3.10;99.90;;;;;;5055577;28;20082;-85
2020/12/17 12:03:12;;;;;;;59.47;25.63;;;3.10;99.90;;;;;;5055884;28;20107;-85
2020/12/17 12:05:38;;;;;;;41.65;21.17;;;3.10;99.90;;;;;;5055563;28;20115;-85
2020/12/17 12:08:04;;;;;;;43.72;20.30;;;3.00;99.90;;;;;;5074020;28;20025;-85
2020/12/17 12:10:30;;;;;;;42.58;18.77;;;3.00;99.90;;;;;;5055454;28;20020;-85
2020/12/17 12:12:56;;;;;;;42.65;20.13;;;3.00;99.90;;;;;;5073351;28;20052;-84
2020/12/17 12:15:22;;;;;;;64.15;32.15;;;2.90;99.90;;;;;;5055374;28;20067;-85
2020/12/17 12:17:48;;;;;;;32.78;15.43;;;2.90;99.90;;;;;;5055142;28;20017;-85
2020/12/17 12:20:13;;;;;;;40.55;17.23;;;2.80;99.90;;;;;;5073178;28;20036;-85
2020/12/17 12:22:39;;;;;;;49.78;19.55;;;2.70;99.90;;;;;;5073305;28;20024;-85
2020/12/17 12:25:05;;;;;;;69.40;31.23;;;2.70;99.90;;;;;;5055273;28;20029;-85
2020/12/17 12:27:31;;;;;;;97.57;40.65;;;2.60;99.90;;;;;;5055066;28;20024;-85
2020/12/17 12:30:01;;;;;;;52.80;23.08;;;2.60;99.90;;;;;;5073247;28;20035;-85
2020/12/17 12:32:27;;;;;;;159.40;59.45;;;2.60;99.90;;;;;;5072369;28;20054;-85
2020/12/17 12:34:55;;;;;;;96.80;41.10;;;2.60;99.90;;;;;;5073081;28;20103;-85